METAR Formatted Surface Weather Observation
Issued by NWS

Home | Current Version | Previous Version | Text Only | Print | Product List | Glossary On
Versions: 1 2
SPZS31 NSTU 060226
SPECI NSTU 060223Z 13022KT 2SM SHRA FEW006 BKN014 OVC038 26/25 A2979= is the U.S. government's official web portal to all federal, state and local government web resources and services.